Zaoyang, China
Current Conditions -  °F | °C
As of 12:00 AM on Wednesday 22 Oct 2014 (Local Time) from ZHHH Reporting Station
Haze Haze  
Wind Chill: 59°   Ceiling: Unl
Heat Index: 59°   Visibility: 2mi
Dew Point: 57°   Wind: 2mph
Humidity: 94%   Direction: NA
Pressure: 30.21"   Gusts: NA
Location:  32.13°N, 112.75°E
Report Text: ZHHH 211600Z VRB01MPS 3200 BR NSC 15/14 Q1023 NOSIG
Loading
Personal Weather Stations






























Interactive Weather Map
Tropical Storm Tracking
New forecast layout! Learn more

10-Day Weather Forecast

Advertisements
Track Severe Weather on mobile